createdAt,value
2023-02-03T00:01:45.360Z,37.10
2023-02-03T00:04:55.111Z,37.10
2023-02-03T00:08:04.047Z,37.10
2023-02-03T00:11:12.388Z,37.10
2023-02-03T00:14:20.480Z,37.00
2023-02-03T00:17:28.318Z,37.00
2023-02-03T00:20:37.782Z,37.00
2023-02-03T00:23:45.796Z,36.90
2023-02-03T00:26:53.787Z,36.90
2023-02-03T00:30:01.810Z,36.90
2023-02-03T00:33:09.760Z,36.90
2023-02-03T00:36:19.094Z,36.90
2023-02-03T00:39:26.960Z,36.80
2023-02-03T00:42:35.968Z,36.80
2023-02-03T00:45:43.988Z,36.80
2023-02-03T00:48:51.987Z,36.80
2023-02-03T00:52:01.585Z,36.80
2023-02-03T00:55:10.499Z,36.80
2023-02-03T00:58:18.398Z,37.30
2023-02-03T01:01:27.246Z,36.70
2023-02-03T01:04:35.201Z,36.70
2023-02-03T01:07:46.710Z,36.70
2023-02-03T01:10:54.561Z,36.70
2023-02-03T01:14:02.552Z,36.70
2023-02-03T01:17:10.679Z,36.60
2023-02-03T01:20:19.090Z,36.70
2023-02-03T01:23:28.301Z,36.60
2023-02-03T01:26:36.690Z,36.60
2023-02-03T01:29:44.618Z,36.60
2023-02-03T01:32:52.473Z,36.50
2023-02-03T01:36:01.824Z,36.60
2023-02-03T01:39:13.218Z,36.50
2023-02-03T01:42:21.325Z,37.10
2023-02-03T01:45:29.625Z,36.50
2023-02-03T01:48:37.683Z,36.50
2023-02-03T01:51:45.884Z,36.50
2023-02-03T01:54:56.670Z,36.50
2023-02-03T01:58:06.581Z,36.50
2023-02-03T02:01:14.882Z,36.50
2023-02-03T02:04:23.035Z,36.50
2023-02-03T02:07:31.080Z,36.50
2023-02-03T02:10:40.860Z,36.50
2023-02-03T02:13:49.383Z,36.50
2023-02-03T02:16:59.578Z,36.50
2023-02-03T02:20:20.949Z,36.50
2023-02-03T02:23:42.971Z,36.50
2023-02-03T02:27:01.408Z,36.50
2023-02-03T02:30:31.216Z,36.50
2023-02-03T02:33:42.456Z,36.50
2023-02-03T02:36:54.641Z,36.50
2023-02-03T02:40:08.397Z,36.50
2023-02-03T02:43:20.680Z,36.50
2023-02-03T02:46:31.885Z,36.50
2023-02-03T02:49:43.757Z,36.50
2023-02-03T02:52:51.543Z,36.40
2023-02-03T02:56:00.749Z,36.50
2023-02-03T02:59:09.035Z,36.50
2023-02-03T03:02:17.522Z,36.50
2023-02-03T03:05:27.061Z,36.50
2023-02-03T03:08:36.816Z,36.50
2023-02-03T03:11:48.693Z,36.50
2023-02-03T03:14:58.741Z,36.50
2023-02-03T03:18:08.858Z,36.50
2023-02-03T03:21:21.178Z,36.50
2023-02-03T03:24:30.651Z,36.50
2023-02-03T03:27:40.569Z,36.50
2023-02-03T03:30:48.988Z,36.50
2023-02-03T03:33:56.903Z,36.50
2023-02-03T03:37:09.360Z,36.50
2023-02-03T03:40:19.728Z,36.50
2023-02-03T03:43:29.469Z,36.50
2023-02-03T03:46:41.111Z,36.50
2023-02-03T03:49:49.419Z,36.50
2023-02-03T03:52:59.313Z,36.50
2023-02-03T03:56:08.357Z,36.60
2023-02-03T03:59:16.298Z,36.50
2023-02-03T04:02:24.497Z,36.50
2023-02-03T04:05:32.412Z,36.50
2023-02-03T04:08:41.872Z,36.50
2023-02-03T04:12:06.070Z,36.50
2023-02-03T04:15:14.277Z,36.50
2023-02-03T04:18:22.101Z,36.50
2023-02-03T04:21:29.879Z,36.50
2023-02-03T04:24:39.256Z,36.50
2023-02-03T04:27:47.093Z,37.10
2023-02-03T04:30:54.936Z,36.50
2023-02-03T04:34:03.165Z,36.50
2023-02-03T04:37:11.400Z,36.50
2023-02-03T04:40:21.041Z,36.50
2023-02-03T04:43:29.079Z,36.50
2023-02-03T04:46:37.332Z,36.50
2023-02-03T04:49:45.667Z,36.50
2023-02-03T04:52:53.716Z,36.50
2023-02-03T04:56:03.010Z,36.50
2023-02-03T04:59:11.276Z,36.50
2023-02-03T05:02:19.460Z,36.50
2023-02-03T05:05:27.630Z,36.50
2023-02-03T05:08:35.616Z,36.40
2023-02-03T05:11:44.987Z,36.40
2023-02-03T05:14:52.942Z,36.40
2023-02-03T05:18:00.856Z,36.40
2023-02-03T05:21:08.799Z,36.40
2023-02-03T05:24:16.892Z,36.40
2023-02-03T05:27:26.391Z,36.40
2023-02-03T05:30:34.190Z,36.30
2023-02-03T05:33:42.025Z,36.30
2023-02-03T05:36:50.130Z,36.30
2023-02-03T05:40:18.540Z,36.30
2023-02-03T05:43:28.726Z,36.30
2023-02-03T05:46:36.628Z,36.30
2023-02-03T05:49:44.648Z,36.30
2023-02-03T05:52:52.703Z,36.30
2023-02-03T05:56:00.760Z,36.30
2023-02-03T05:59:10.437Z,36.30
2023-02-03T06:02:18.338Z,36.20
2023-02-03T06:05:26.346Z,36.30
2023-02-03T06:08:34.220Z,36.30
2023-02-03T06:11:42.746Z,36.40
2023-02-03T06:14:52.147Z,36.70
2023-02-03T06:18:00.139Z,37.00
2023-02-03T06:21:08.405Z,37.20
2023-02-03T06:24:16.535Z,37.20
2023-02-03T06:27:24.508Z,37.20
2023-02-03T06:30:34.195Z,37.20
2023-02-03T06:33:42.638Z,37.40
2023-02-03T06:36:50.881Z,37.70
2023-02-03T06:39:59.086Z,37.90
2023-02-03T06:43:07.314Z,38.00
2023-02-03T06:46:16.769Z,38.10
2023-02-03T06:49:24.678Z,38.10
2023-02-03T06:52:32.608Z,38.10
2023-02-03T06:55:40.581Z,38.10
2023-02-03T06:58:48.792Z,38.00
2023-02-03T07:01:58.274Z,37.90
2023-02-03T07:05:06.596Z,37.90
2023-02-03T07:08:14.585Z,37.90
2023-02-03T07:11:22.853Z,37.90
2023-02-03T07:14:31.201Z,37.80
2023-02-03T07:17:40.452Z,37.70
2023-02-03T07:20:48.484Z,37.70
2023-02-03T07:23:56.530Z,37.60
2023-02-03T07:27:04.791Z,37.50
2023-02-03T07:30:14.225Z,37.50
2023-02-03T07:33:23.768Z,37.50
2023-02-03T07:36:31.824Z,37.50
2023-02-03T07:39:39.887Z,37.40
2023-02-03T07:42:48.436Z,37.30
2023-02-03T07:45:56.313Z,37.30
2023-02-03T07:49:05.911Z,37.30
2023-02-03T07:52:14.022Z,37.20
2023-02-03T07:55:22.366Z,37.20
2023-02-03T07:58:30.445Z,37.10
2023-02-03T08:01:38.536Z,37.00
2023-02-03T08:04:47.943Z,37.10
2023-02-03T08:07:56.053Z,37.00
2023-02-03T08:11:04.348Z,36.90
2023-02-03T08:14:12.549Z,37.00
2023-02-03T08:17:20.660Z,37.00
2023-02-03T08:20:30.434Z,36.90
2023-02-03T08:23:38.653Z,36.90
2023-02-03T08:26:46.484Z,37.50
2023-02-03T08:29:54.423Z,36.80
2023-02-03T08:33:02.545Z,36.80
2023-02-03T08:36:12.375Z,36.70
2023-02-03T08:39:20.480Z,36.80
2023-02-03T08:42:28.489Z,36.80
2023-02-03T08:45:36.584Z,36.70
2023-02-03T08:48:44.733Z,36.60
2023-02-03T08:51:54.555Z,36.60
2023-02-03T08:55:02.358Z,36.60
2023-02-03T08:58:10.332Z,36.60
2023-02-03T09:01:18.736Z,36.60
2023-02-03T09:04:27.094Z,36.50
2023-02-03T09:07:36.362Z,36.50
2023-02-03T09:10:44.514Z,36.50
2023-02-03T09:13:52.350Z,36.50
2023-02-03T09:17:00.583Z,36.50
2023-02-03T09:20:10.244Z,36.50
2023-02-03T09:23:19.536Z,36.50
2023-02-03T09:26:27.576Z,36.50
2023-02-03T09:29:35.435Z,36.50
2023-02-03T09:32:43.208Z,36.50
2023-02-03T09:35:54.260Z,36.50
2023-02-03T09:39:03.994Z,36.50
2023-02-03T09:42:34.898Z,36.50
2023-02-03T09:45:42.813Z,36.50
2023-02-03T09:48:52.886Z,36.50
2023-02-03T09:52:03.013Z,36.50
2023-02-03T09:55:27.038Z,36.50
2023-02-03T09:58:35.496Z,36.50
2023-02-03T10:01:46.271Z,36.50
2023-02-03T10:04:58.106Z,36.50
2023-02-03T10:08:10.012Z,36.40
2023-02-03T10:11:23.790Z,36.50
2023-02-03T10:14:41.205Z,36.40
2023-02-03T10:17:52.995Z,36.40
2023-02-03T10:21:02.877Z,36.50
2023-02-03T10:24:12.249Z,36.50
2023-02-03T10:27:22.664Z,36.40
2023-02-03T10:30:33.143Z,36.50
2023-02-03T10:33:41.267Z,36.50
2023-02-03T10:36:56.073Z,36.50
2023-02-03T10:40:04.596Z,36.50
2023-02-03T10:43:31.745Z,36.50
2023-02-03T10:46:42.018Z,36.50
2023-02-03T10:49:51.728Z,36.50
2023-02-03T10:53:21.327Z,36.50
2023-02-03T10:56:32.021Z,36.50
2023-02-03T10:59:43.287Z,36.60
2023-02-03T11:02:57.039Z,36.80
2023-02-03T11:06:09.991Z,37.50
2023-02-03T11:09:23.122Z,36.90
2023-02-03T11:12:30.956Z,36.90
2023-02-03T11:15:44.477Z,37.00
2023-02-03T11:18:55.091Z,37.10
2023-02-03T11:22:02.911Z,37.10
2023-02-03T11:25:17.962Z,37.10
2023-02-03T11:28:25.891Z,37.20
2023-02-03T11:31:36.398Z,37.30
2023-02-03T11:34:47.896Z,37.30
2023-02-03T11:37:56.595Z,37.30
2023-02-03T11:41:04.729Z,37.30
2023-02-03T11:44:13.653Z,37.30
2023-02-03T11:47:23.868Z,37.30
2023-02-03T11:50:32.554Z,37.30
2023-02-03T11:53:57.709Z,37.30
2023-02-03T11:57:15.188Z,37.30
2023-02-03T12:00:29.067Z,37.40
2023-02-03T12:04:16.504Z,37.30
2023-02-03T12:07:39.945Z,37.40
2023-02-03T12:10:52.793Z,37.40
2023-02-03T12:14:16.070Z,37.40
2023-02-03T12:18:03.556Z,37.40
2023-02-03T12:21:36.349Z,37.40
2023-02-03T12:24:53.286Z,37.30
2023-02-03T12:28:06.747Z,37.30
2023-02-03T12:31:17.099Z,37.30
2023-02-03T12:34:28.058Z,37.30
2023-02-03T12:37:43.155Z,37.30
2023-02-03T12:40:53.978Z,37.30
2023-02-03T12:44:02.983Z,37.30
2023-02-03T12:47:14.608Z,37.30
2023-02-03T12:50:24.381Z,37.30
2023-02-03T12:53:34.054Z,37.40
2023-02-03T12:56:44.974Z,37.40
2023-02-03T13:00:06.792Z,37.40
2023-02-03T13:03:20.594Z,37.50
2023-02-03T13:06:31.603Z,37.50
2023-02-03T13:09:40.858Z,37.50
2023-02-03T13:12:52.167Z,37.50
2023-02-03T13:16:00.114Z,37.50
2023-02-03T13:19:09.208Z,37.50
2023-02-03T13:22:17.215Z,37.50
2023-02-03T13:25:26.856Z,37.50
2023-02-03T13:28:45.635Z,37.50
2023-02-03T13:32:02.418Z,37.40
2023-02-03T13:35:32.182Z,37.40
2023-02-03T13:38:51.290Z,37.40
2023-02-03T13:42:12.700Z,37.30
2023-02-03T13:45:26.513Z,37.30
2023-02-03T13:48:34.694Z,37.30
2023-02-03T13:51:46.082Z,37.30
2023-02-03T13:54:54.100Z,37.20
2023-02-03T13:58:01.947Z,37.20
2023-02-03T14:01:33.277Z,37.30
2023-02-03T14:05:03.059Z,37.30
2023-02-03T14:08:53.956Z,37.30
2023-02-03T14:12:18.433Z,37.30
2023-02-03T14:15:33.741Z,37.40
2023-02-03T14:18:46.647Z,37.40
2023-02-03T14:21:56.201Z,37.40
2023-02-03T14:25:06.856Z,37.50
2023-02-03T14:28:15.608Z,37.50
2023-02-03T14:31:23.726Z,37.40
2023-02-03T14:34:35.186Z,37.40
2023-02-03T14:37:43.056Z,37.40
2023-02-03T14:40:52.282Z,37.50
2023-02-03T14:44:01.999Z,37.40
2023-02-03T14:47:13.190Z,37.40
2023-02-03T14:50:47.726Z,37.40
2023-02-03T14:54:14.189Z,37.30
2023-02-03T14:57:29.667Z,37.30
2023-02-03T15:00:37.722Z,37.90
2023-02-03T15:03:47.992Z,38.40
2023-02-03T15:06:57.550Z,38.50
2023-02-03T15:10:11.031Z,38.50
2023-02-03T15:13:26.515Z,38.70
2023-02-03T15:16:34.355Z,39.10
2023-02-03T15:19:43.623Z,39.30
2023-02-03T15:22:53.223Z,39.10
2023-02-03T15:26:02.066Z,39.00
2023-02-03T15:29:23.087Z,39.60
2023-02-03T15:32:32.383Z,39.00
2023-02-03T15:35:40.134Z,39.20
2023-02-03T15:38:51.171Z,39.60
2023-02-03T15:41:59.139Z,39.50
2023-02-03T15:45:09.541Z,39.60
2023-02-03T15:48:19.167Z,39.50
2023-02-03T15:51:29.788Z,39.50
2023-02-03T15:54:53.459Z,39.60
2023-02-03T15:58:07.716Z,39.70
2023-02-03T16:01:26.076Z,39.80
2023-02-03T16:04:34.960Z,40.00
2023-02-03T16:07:43.676Z,40.10
2023-02-03T16:10:54.529Z,40.20
2023-02-03T16:14:05.654Z,40.30
2023-02-03T16:17:25.497Z,40.50
2023-02-03T16:20:34.123Z,40.50
2023-02-03T16:23:42.509Z,40.70
2023-02-03T16:26:52.213Z,40.70
2023-02-03T16:30:42.403Z,40.80
2023-02-03T16:34:08.874Z,40.80
2023-02-03T16:37:41.662Z,40.90
2023-02-03T16:41:07.240Z,41.00
2023-02-03T16:44:34.046Z,41.00
2023-02-03T16:47:59.365Z,41.10
2023-02-03T16:51:11.849Z,41.20
2023-02-03T16:54:19.931Z,41.30
2023-02-03T16:57:27.871Z,41.50
2023-02-03T17:00:41.321Z,41.50
2023-02-03T17:03:49.328Z,42.10
2023-02-03T17:06:57.579Z,41.60
2023-02-03T17:10:06.230Z,41.70
2023-02-03T17:13:14.500Z,41.80
2023-02-03T17:16:25.237Z,41.80
2023-02-03T17:19:33.762Z,42.40
2023-02-03T17:22:41.757Z,41.90
2023-02-03T17:25:50.427Z,42.00
2023-02-03T17:29:02.997Z,41.80
2023-02-03T17:32:15.188Z,41.80
2023-02-03T17:35:23.350Z,41.80
2023-02-03T17:38:31.541Z,41.90
2023-02-03T17:55:23.410Z,41.90
2023-02-03T17:58:31.698Z,42.10
2023-02-03T18:01:39.928Z,42.00
2023-02-03T18:04:49.421Z,41.90
2023-02-03T18:08:00.789Z,41.90
2023-02-03T18:11:14.510Z,41.80
2023-02-03T18:14:22.866Z,41.80
2023-02-03T18:17:31.008Z,42.00
2023-02-03T18:20:40.620Z,42.10
2023-02-03T18:23:49.442Z,42.10
2023-02-03T18:27:00.239Z,42.00
2023-02-03T18:30:11.438Z,42.00
2023-02-03T18:33:19.388Z,41.90
2023-02-03T18:36:28.816Z,41.90
2023-02-03T18:39:37.061Z,41.80
2023-02-03T18:42:45.332Z,41.80
2023-02-03T18:45:53.594Z,41.70
2023-02-03T18:49:01.670Z,41.70
2023-02-03T18:52:11.524Z,41.70
2023-02-03T18:55:19.739Z,42.00
2023-02-03T18:58:28.018Z,42.20
2023-02-03T19:01:36.096Z,42.30
2023-02-03T19:04:44.049Z,42.30
2023-02-03T19:07:53.422Z,42.20
2023-02-03T19:11:01.586Z,42.30
2023-02-03T19:14:09.677Z,42.20
2023-02-03T19:17:17.717Z,42.00
2023-02-03T19:20:25.680Z,42.00
2023-02-03T19:23:35.019Z,42.00
2023-02-03T19:26:43.422Z,42.00
2023-02-03T19:29:51.349Z,41.90
2023-02-03T19:32:59.370Z,41.80
2023-02-03T19:36:08.280Z,41.80
2023-02-03T19:39:18.658Z,41.70
2023-02-03T19:42:27.011Z,41.70
2023-02-03T19:45:36.045Z,41.60
2023-02-03T19:48:44.115Z,41.70
2023-02-03T19:51:52.630Z,41.70
2023-02-03T19:55:02.282Z,41.70
2023-02-03T19:58:10.477Z,41.70
2023-02-03T20:01:18.667Z,41.50
2023-02-03T20:04:27.608Z,41.80
2023-02-03T20:07:35.783Z,41.90
2023-02-03T20:10:45.554Z,42.00
2023-02-03T20:13:53.840Z,41.90
2023-02-03T20:17:04.218Z,42.00
2023-02-03T20:20:12.826Z,41.80
2023-02-03T20:23:21.068Z,41.60
2023-02-03T20:26:30.435Z,41.60
2023-02-03T20:29:38.689Z,41.60
2023-02-03T20:32:47.346Z,41.60
2023-02-03T20:35:55.386Z,41.70
2023-02-03T20:39:03.297Z,41.70
2023-02-03T20:42:15.496Z,41.70
2023-02-03T20:45:24.730Z,41.60
2023-02-03T20:48:32.609Z,41.60
2023-02-03T20:51:40.942Z,41.50
2023-02-03T20:54:48.957Z,41.50
2023-02-03T20:57:58.545Z,41.40
2023-02-03T21:01:13.041Z,41.30
2023-02-03T21:04:38.300Z,41.30
2023-02-03T21:07:46.374Z,41.20
2023-02-03T21:10:54.619Z,41.20
2023-02-03T21:14:06.363Z,41.10
2023-02-03T21:17:21.522Z,40.90
2023-02-03T21:20:31.551Z,40.80
2023-02-03T21:23:41.357Z,40.70
2023-02-03T21:26:50.145Z,40.70
2023-02-03T21:30:00.503Z,40.70
2023-02-03T21:33:26.819Z,40.60
2023-02-03T21:36:35.989Z,40.60
2023-02-03T21:39:43.973Z,40.50
2023-02-03T21:42:52.291Z,40.40
2023-02-03T21:46:02.109Z,40.30
2023-02-03T21:49:10.992Z,40.30
2023-02-03T21:52:19.252Z,40.20
2023-02-03T21:55:27.473Z,40.20
2023-02-03T21:58:36.801Z,40.20
2023-02-03T22:01:46.344Z,40.20
2023-02-03T22:04:54.148Z,40.20
2023-02-03T22:08:03.726Z,40.10
2023-02-03T22:11:13.090Z,40.70
2023-02-03T22:14:21.708Z,40.10
2023-02-03T22:17:31.021Z,40.10
2023-02-03T22:20:39.106Z,40.20
2023-02-03T22:23:47.351Z,40.10
2023-02-03T22:27:00.079Z,40.10
2023-02-03T22:30:08.882Z,40.10
2023-02-03T22:33:18.001Z,40.10
2023-02-03T22:36:26.076Z,40.10
2023-02-03T22:39:34.270Z,40.10
2023-02-03T22:42:42.262Z,40.10
2023-02-03T22:45:50.236Z,40.20
2023-02-03T22:48:59.483Z,40.10
2023-02-03T22:52:07.534Z,40.10
2023-02-03T22:55:15.583Z,39.80
2023-02-03T22:58:23.621Z,39.80
2023-02-03T23:01:31.444Z,39.70
2023-02-03T23:04:40.853Z,39.70
2023-02-03T23:07:49.165Z,39.60
2023-02-03T23:10:57.388Z,39.60
2023-02-03T23:14:05.627Z,39.50
2023-02-03T23:17:13.754Z,39.50
2023-02-03T23:20:23.093Z,39.50
2023-02-03T23:23:31.292Z,39.40
2023-02-03T23:26:39.420Z,39.40
2023-02-03T23:29:47.252Z,39.30
2023-02-03T23:32:55.387Z,39.20
2023-02-03T23:36:04.400Z,39.80
2023-02-03T23:39:12.366Z,39.20
2023-02-03T23:42:20.338Z,39.40
2023-02-03T23:45:28.202Z,39.50
2023-02-03T23:48:35.965Z,39.40
2023-02-03T23:51:45.374Z,39.40
2023-02-03T23:54:53.164Z,39.40
2023-02-03T23:58:01.327Z,39.40
